createdAt,value
2023-10-20T00:01:07.758Z,1.47
2023-10-20T00:03:36.957Z,1.80
2023-10-20T00:06:05.911Z,1.60
2023-10-20T00:08:33.281Z,2.10
2023-10-20T00:11:06.342Z,1.47
2023-10-20T00:13:34.475Z,1.90
2023-10-20T00:16:01.444Z,1.70
2023-10-20T00:18:28.289Z,1.97
2023-10-20T00:21:00.333Z,1.60
2023-10-20T00:23:30.255Z,1.60
2023-10-20T00:25:57.122Z,1.70
2023-10-20T00:28:23.896Z,1.60
2023-10-20T00:30:50.741Z,1.60
2023-10-20T00:33:21.295Z,1.60
2023-10-20T00:35:48.056Z,1.83
2023-10-20T00:38:16.242Z,1.70
2023-10-20T00:40:52.257Z,1.80
2023-10-20T00:43:19.455Z,1.90
2023-10-20T00:45:46.688Z,1.57
2023-10-20T00:48:14.269Z,1.90
2023-10-20T00:50:41.791Z,1.60
2023-10-20T00:53:12.203Z,1.70
2023-10-20T00:55:42.255Z,1.60
2023-10-20T00:58:10.425Z,2.00
2023-10-20T01:00:37.694Z,1.80
2023-10-20T01:03:06.041Z,1.77
2023-10-20T01:05:33.984Z,1.80
2023-10-20T01:08:00.903Z,1.83
2023-10-20T01:10:37.149Z,1.80
2023-10-20T01:13:04.123Z,1.50
2023-10-20T01:15:30.976Z,1.30
2023-10-20T01:17:57.873Z,1.70
2023-10-20T01:20:24.860Z,1.50
2023-10-20T01:22:51.883Z,1.40
2023-10-20T01:25:21.989Z,1.27
2023-10-20T01:27:48.989Z,1.43
2023-10-20T01:30:17.707Z,1.07
2023-10-20T01:32:45.536Z,1.60
2023-10-20T01:35:14.635Z,1.40
2023-10-20T01:37:42.187Z,1.37
2023-10-20T01:40:11.006Z,1.30
2023-10-20T01:42:37.854Z,1.40
2023-10-20T01:45:06.179Z,1.50
2023-10-20T01:47:33.642Z,1.47
2023-10-20T01:50:01.179Z,1.50
2023-10-20T01:52:27.970Z,1.53
2023-10-20T01:55:00.848Z,1.53
2023-10-20T01:57:27.674Z,1.60
2023-10-20T01:59:57.614Z,1.50
2023-10-20T02:02:24.568Z,1.50
2023-10-20T02:04:53.772Z,1.60
2023-10-20T02:07:20.582Z,1.60
2023-10-20T02:09:47.604Z,1.60
2023-10-20T02:12:17.227Z,1.40
2023-10-20T02:14:46.751Z,1.60
2023-10-20T02:17:14.259Z,1.67
2023-10-20T02:19:41.247Z,1.50
2023-10-20T02:22:10.168Z,1.37
2023-10-20T02:24:39.845Z,1.40
2023-10-20T02:27:06.627Z,1.50
2023-10-20T02:29:34.593Z,1.60
2023-10-20T02:32:01.717Z,1.50
2023-10-20T02:34:28.642Z,1.83
2023-10-20T02:36:55.721Z,1.60
2023-10-20T02:39:23.281Z,1.53
2023-10-20T02:41:50.156Z,1.50
2023-10-20T02:44:16.990Z,1.70
2023-10-20T02:46:45.041Z,1.90
2023-10-20T02:49:11.925Z,1.40
2023-10-20T02:51:38.693Z,1.67
2023-10-20T02:54:05.665Z,1.50
2023-10-20T02:56:32.703Z,1.80
2023-10-20T02:58:59.720Z,1.70
2023-10-20T03:01:27.332Z,1.60
2023-10-20T03:03:54.747Z,1.60
2023-10-20T03:06:23.731Z,1.70
2023-10-20T03:08:51.611Z,1.50
2023-10-20T03:11:18.408Z,1.30
2023-10-20T03:13:45.410Z,1.93
2023-10-20T03:16:12.267Z,1.60
2023-10-20T03:18:40.159Z,1.80
2023-10-20T03:21:08.745Z,2.00
2023-10-20T03:23:35.718Z,1.70
2023-10-20T03:26:02.727Z,1.93
2023-10-20T03:28:29.656Z,1.80
2023-10-20T03:30:56.691Z,1.67
2023-10-20T03:33:26.742Z,1.90
2023-10-20T03:36:06.378Z,1.70
2023-10-20T03:38:34.234Z,2.30
2023-10-20T03:41:08.417Z,1.90
2023-10-20T03:43:36.875Z,1.83
2023-10-20T03:46:05.290Z,2.13
2023-10-20T03:48:34.689Z,2.00
2023-10-20T03:51:08.829Z,1.73
2023-10-20T03:53:48.836Z,2.00
2023-10-20T03:56:20.155Z,2.00
2023-10-20T03:58:47.919Z,1.87
2023-10-20T04:01:15.335Z,1.87
2023-10-20T04:03:44.701Z,1.80
2023-10-20T04:06:12.816Z,2.03
2023-10-20T04:08:39.790Z,2.00
2023-10-20T04:11:06.820Z,2.30
2023-10-20T04:13:34.380Z,2.30
2023-10-20T04:16:13.456Z,2.33
2023-10-20T04:18:44.005Z,2.50
2023-10-20T04:21:14.764Z,2.50
2023-10-20T04:23:45.181Z,2.57
2023-10-20T04:26:24.266Z,2.80
2023-10-20T04:29:09.457Z,2.93
2023-10-20T04:31:55.018Z,2.90
2023-10-20T04:34:40.439Z,3.07
2023-10-20T04:37:25.777Z,2.90
2023-10-20T04:40:15.040Z,3.20
2023-10-20T04:42:58.236Z,3.13
2023-10-20T04:45:25.037Z,3.20
2023-10-20T04:47:51.911Z,3.50
2023-10-20T04:50:27.770Z,3.30
2023-10-20T04:53:11.012Z,3.60
2023-10-20T04:55:56.380Z,3.23
2023-10-20T04:58:35.847Z,3.40
2023-10-20T05:01:10.810Z,3.17
2023-10-20T05:03:46.804Z,2.73
2023-10-20T05:06:23.104Z,2.90
2023-10-20T05:08:50.590Z,2.40
2023-10-20T05:11:17.877Z,3.00
2023-10-20T05:13:45.082Z,3.00
2023-10-20T05:16:13.322Z,2.90
2023-10-20T05:18:41.006Z,2.90
2023-10-20T05:21:13.436Z,2.50
2023-10-20T05:23:42.382Z,2.70
2023-10-20T05:26:12.373Z,2.63
2023-10-20T05:28:42.730Z,2.60
2023-10-20T05:31:09.558Z,2.90
2023-10-20T05:33:36.456Z,2.73
2023-10-20T05:36:04.851Z,2.40
2023-10-20T05:38:32.906Z,2.40
2023-10-20T05:41:01.264Z,2.50
2023-10-20T05:43:31.633Z,2.80
2023-10-20T05:45:58.636Z,2.07
2023-10-20T05:48:25.724Z,2.60
2023-10-20T05:50:57.710Z,2.10
2023-10-20T05:53:26.076Z,1.90
2023-10-20T05:55:56.238Z,2.40
2023-10-20T05:58:23.630Z,2.50
2023-10-20T06:01:02.426Z,2.30
2023-10-20T06:03:30.474Z,2.13
2023-10-20T06:06:05.020Z,2.00
2023-10-20T06:08:32.127Z,2.17
2023-10-20T06:11:08.021Z,2.27
2023-10-20T06:13:36.791Z,2.30
2023-10-20T06:16:13.156Z,2.73
2023-10-20T06:18:43.937Z,2.80
2023-10-20T06:21:18.157Z,2.43
2023-10-20T06:23:45.862Z,2.50
2023-10-20T06:26:13.796Z,2.57
2023-10-20T06:28:40.856Z,2.23
2023-10-20T06:31:26.681Z,2.37
2023-10-20T06:34:04.420Z,2.30
2023-10-20T06:36:31.371Z,2.30
2023-10-20T06:39:01.382Z,2.27
2023-10-20T06:41:28.317Z,2.37
2023-10-20T06:43:55.051Z,2.40
2023-10-20T06:46:24.733Z,2.20
2023-10-20T06:48:51.637Z,2.10
2023-10-20T06:51:22.259Z,2.50
2023-10-20T06:53:49.103Z,2.60
2023-10-20T06:56:18.273Z,3.60
2023-10-20T06:58:48.618Z,2.60
2023-10-20T07:01:15.473Z,2.10
2023-10-20T07:03:42.396Z,2.13
2023-10-20T07:06:10.725Z,2.10
2023-10-20T07:08:38.239Z,1.90
2023-10-20T07:11:05.256Z,1.93
2023-10-20T07:13:33.409Z,1.80
2023-10-20T07:16:01.653Z,2.40
2023-10-20T07:18:30.198Z,2.20
2023-10-20T07:20:58.559Z,2.10
2023-10-20T07:23:28.983Z,1.93
2023-10-20T07:25:55.874Z,2.10
2023-10-20T07:28:23.206Z,1.70
2023-10-20T07:30:50.861Z,2.17
2023-10-20T07:33:17.820Z,2.00
2023-10-20T07:35:47.588Z,2.20
2023-10-20T07:38:14.507Z,2.30
2023-10-20T07:40:41.850Z,2.00
2023-10-20T07:43:12.295Z,2.40
2023-10-20T07:45:41.908Z,2.23
2023-10-20T07:48:09.886Z,1.93
2023-10-20T07:50:36.895Z,1.97
2023-10-20T07:53:04.911Z,1.57
2023-10-20T07:55:34.831Z,1.90
2023-10-20T07:58:01.743Z,1.83
2023-10-20T08:00:30.708Z,1.70
2023-10-20T08:02:57.820Z,2.10
2023-10-20T08:05:26.920Z,1.83
2023-10-20T08:07:54.529Z,2.07
2023-10-20T08:10:22.912Z,2.23
2023-10-20T08:12:50.393Z,1.97
2023-10-20T08:15:20.910Z,1.90
2023-10-20T08:17:49.596Z,2.20
2023-10-20T08:20:17.391Z,2.37
2023-10-20T08:22:44.792Z,2.40
2023-10-20T08:25:15.986Z,2.23
2023-10-20T08:27:43.311Z,2.10
2023-10-20T08:30:10.867Z,2.40
2023-10-20T08:32:37.799Z,2.20
2023-10-20T08:35:09.058Z,2.27
2023-10-20T08:37:37.374Z,2.43
2023-10-20T08:40:11.584Z,3.10
2023-10-20T08:42:41.998Z,2.93
2023-10-20T08:45:14.554Z,3.37
2023-10-20T08:47:43.121Z,3.23
2023-10-20T08:50:11.012Z,3.20
2023-10-20T08:52:40.054Z,3.00
2023-10-20T08:55:08.787Z,2.97
2023-10-20T08:57:39.008Z,2.40
2023-10-20T09:00:08.467Z,3.07
2023-10-20T09:02:39.852Z,3.20
2023-10-20T09:05:08.202Z,2.50
2023-10-20T09:07:35.337Z,2.90
2023-10-20T09:10:02.867Z,2.50
2023-10-20T09:12:31.536Z,2.00
2023-10-20T09:14:58.378Z,1.83
2023-10-20T09:17:25.519Z,1.93
2023-10-20T09:19:52.443Z,1.80
2023-10-20T09:22:30.033Z,1.60
2023-10-20T09:24:57.784Z,1.80
2023-10-20T09:27:25.781Z,1.60
2023-10-20T09:29:55.426Z,1.57
2023-10-20T09:32:22.396Z,1.60
2023-10-20T09:34:50.114Z,1.67
2023-10-20T09:37:23.662Z,1.63
2023-10-20T09:39:55.577Z,1.77
2023-10-20T09:42:26.055Z,1.87
2023-10-20T09:45:10.450Z,1.93
2023-10-20T09:47:44.186Z,2.13
2023-10-20T09:50:19.210Z,1.90
2023-10-20T09:52:46.052Z,1.60
2023-10-20T09:55:14.798Z,2.07
2023-10-20T09:57:41.748Z,2.00
2023-10-20T10:00:11.285Z,1.90
2023-10-20T10:02:38.204Z,1.97
2023-10-20T10:05:10.186Z,1.60
2023-10-20T10:07:37.038Z,1.87
2023-10-20T10:10:08.184Z,1.80
2023-10-20T10:12:35.850Z,1.67
2023-10-20T10:15:15.056Z,1.90
2023-10-20T10:17:51.151Z,1.70
2023-10-20T10:20:25.516Z,1.50
2023-10-20T10:23:10.074Z,1.70
2023-10-20T10:25:38.254Z,1.73
2023-10-20T10:28:14.802Z,1.70
2023-10-20T10:30:46.791Z,1.30
2023-10-20T10:33:14.822Z,1.40
2023-10-20T10:35:42.103Z,1.30
2023-10-20T10:38:22.304Z,1.60
2023-10-20T10:40:56.332Z,1.10
2023-10-20T10:43:23.860Z,1.13
2023-10-20T10:45:54.801Z,1.00
2023-10-20T10:48:26.062Z,0.70
2023-10-20T10:50:53.352Z,0.90
2023-10-20T10:53:20.323Z,0.70
2023-10-20T10:55:47.244Z,0.73
2023-10-20T10:58:15.239Z,0.83
2023-10-20T11:00:45.077Z,1.00
2023-10-20T11:03:15.176Z,0.67
2023-10-20T11:05:42.923Z,0.70
2023-10-20T11:08:14.400Z,0.80
2023-10-20T11:10:47.387Z,0.87
2023-10-20T11:13:16.965Z,0.90
2023-10-20T11:15:47.783Z,1.00
2023-10-20T11:18:14.780Z,0.70
2023-10-20T11:20:43.465Z,0.60
2023-10-20T11:23:13.611Z,0.70
2023-10-20T11:25:44.367Z,0.40
2023-10-20T11:28:11.597Z,0.60
2023-10-20T11:30:46.525Z,0.30
2023-10-20T11:33:16.554Z,0.30
2023-10-20T11:35:45.245Z,0.37
2023-10-20T11:38:17.629Z,0.30
2023-10-20T11:40:48.714Z,0.33
2023-10-20T11:43:16.070Z,0.30
2023-10-20T11:45:42.832Z,0.40
2023-10-20T11:48:10.328Z,0.40
2023-10-20T11:50:37.400Z,0.30
2023-10-20T11:53:04.520Z,0.30
2023-10-20T11:55:31.602Z,0.40
2023-10-20T11:57:58.500Z,0.30
2023-10-20T12:00:25.875Z,0.30
2023-10-20T12:02:52.843Z,0.60
2023-10-20T12:05:20.109Z,0.90
2023-10-20T12:07:46.992Z,0.50
2023-10-20T12:10:15.964Z,2.07
2023-10-20T12:12:42.863Z,1.23
2023-10-20T12:15:09.999Z,3.90
2023-10-20T12:17:38.256Z,2.80
2023-10-20T12:20:06.128Z,5.60
2023-10-20T12:22:32.928Z,0.87
2023-10-20T12:24:59.695Z,0.60
2023-10-20T12:27:26.570Z,3.97
2023-10-20T12:29:54.331Z,0.80
2023-10-20T12:32:21.286Z,4.33
2023-10-20T12:34:48.104Z,9.03
2023-10-20T12:37:14.871Z,12.17
2023-10-20T12:39:41.864Z,15.13
2023-10-20T12:42:08.768Z,0.40
2023-10-20T12:44:36.611Z,0.50
2023-10-20T12:47:04.500Z,0.60
2023-10-20T12:49:32.685Z,0.50
2023-10-20T12:52:01.459Z,0.47
2023-10-20T12:54:28.275Z,1.20
2023-10-20T12:56:55.463Z,0.30
2023-10-20T12:59:22.393Z,0.40
2023-10-20T13:01:49.312Z,0.40
2023-10-20T13:04:16.316Z,0.20
2023-10-20T13:06:57.966Z,0.50
2023-10-20T13:09:25.575Z,0.50
2023-10-20T13:11:58.600Z,0.33
2023-10-20T13:14:27.165Z,0.30
2023-10-20T13:16:54.172Z,0.40
2023-10-20T13:19:21.069Z,0.30
2023-10-20T13:21:48.350Z,0.30
2023-10-20T13:24:15.210Z,0.30
2023-10-20T13:26:42.036Z,0.30
2023-10-20T13:29:08.830Z,0.70
2023-10-20T13:31:35.814Z,0.53
2023-10-20T13:34:03.860Z,0.40
2023-10-20T13:36:30.950Z,0.30
2023-10-20T13:38:57.912Z,0.90
2023-10-20T13:41:25.216Z,0.57
2023-10-20T13:43:52.972Z,0.50
2023-10-20T13:46:20.253Z,0.30
2023-10-20T13:48:48.094Z,0.30
2023-10-20T13:51:15.159Z,0.30
2023-10-20T13:53:42.105Z,0.50
2023-10-20T13:56:08.952Z,0.30
2023-10-20T13:58:35.821Z,0.40
2023-10-20T14:01:03.914Z,0.30
2023-10-20T14:03:31.069Z,0.40
2023-10-20T14:05:58.365Z,0.37
2023-10-20T14:08:25.864Z,0.40
2023-10-20T14:10:55.181Z,0.30
2023-10-20T14:13:22.135Z,0.30
2023-10-20T14:15:50.630Z,0.40
2023-10-20T14:18:18.608Z,0.40
2023-10-20T14:20:45.657Z,0.47
2023-10-20T14:23:12.536Z,0.40
2023-10-20T14:25:39.372Z,0.33
2023-10-20T14:28:06.894Z,0.70
2023-10-20T14:30:34.625Z,0.80
2023-10-20T14:33:01.973Z,0.90
2023-10-20T14:35:29.709Z,1.10
2023-10-20T14:37:59.440Z,0.93
2023-10-20T14:40:27.307Z,0.80
2023-10-20T14:42:54.201Z,0.70
2023-10-20T14:45:20.976Z,0.70
2023-10-20T14:47:47.940Z,0.60
2023-10-20T14:50:15.581Z,0.70
2023-10-20T14:52:42.597Z,0.50
2023-10-20T14:55:12.862Z,0.70
2023-10-20T14:57:40.090Z,0.60
2023-10-20T15:00:10.917Z,0.57
2023-10-20T15:02:42.032Z,0.87
2023-10-20T15:05:09.900Z,0.87
2023-10-20T15:07:37.917Z,0.40
2023-10-20T15:10:05.662Z,0.50
2023-10-20T15:12:32.926Z,0.50
2023-10-20T15:15:00.730Z,0.50
2023-10-20T15:17:28.254Z,0.50
2023-10-20T15:19:55.256Z,0.60
2023-10-20T15:22:22.130Z,0.30
2023-10-20T15:24:49.740Z,0.60
2023-10-20T15:27:19.421Z,0.40
2023-10-20T15:29:47.679Z,0.60
2023-10-20T15:32:16.639Z,0.60
2023-10-20T15:34:43.657Z,0.60
2023-10-20T15:37:10.674Z,0.60
2023-10-20T15:39:49.060Z,0.77
2023-10-20T15:42:19.831Z,0.60
2023-10-20T15:44:46.656Z,0.70
2023-10-20T15:47:13.559Z,0.80
2023-10-20T15:49:41.239Z,0.57
2023-10-20T15:52:11.085Z,0.57
2023-10-20T15:54:38.347Z,0.73
2023-10-20T15:57:05.339Z,0.80
2023-10-20T15:59:32.798Z,0.83
2023-10-20T16:01:59.687Z,0.70
2023-10-20T16:04:27.789Z,0.80
2023-10-20T16:06:54.664Z,0.80
2023-10-20T16:09:21.442Z,0.87
2023-10-20T16:11:48.313Z,0.93
2023-10-20T16:14:15.133Z,0.80
2023-10-20T16:16:41.932Z,0.70
2023-10-20T16:19:11.627Z,0.80
2023-10-20T16:21:38.661Z,0.80
2023-10-20T16:24:06.200Z,0.90
2023-10-20T16:26:33.174Z,1.07
2023-10-20T16:29:00.005Z,1.10
2023-10-20T16:31:26.904Z,1.40
2023-10-20T16:33:54.495Z,1.20
2023-10-20T16:36:21.527Z,1.57
2023-10-20T16:38:48.355Z,1.00
2023-10-20T16:41:15.224Z,1.10
2023-10-20T16:43:42.074Z,1.20
2023-10-20T16:46:09.045Z,0.90
2023-10-20T16:48:36.083Z,1.10
2023-10-20T16:51:03.789Z,1.20
2023-10-20T16:53:30.941Z,1.20
2023-10-20T16:56:02.167Z,1.10
2023-10-20T16:58:29.039Z,0.70
2023-10-20T17:01:05.927Z,0.90
2023-10-20T17:03:34.475Z,0.50
2023-10-20T17:06:05.956Z,0.50
2023-10-20T17:08:33.901Z,0.57
2023-10-20T17:11:04.620Z,0.70
2023-10-20T17:13:32.446Z,0.40
2023-10-20T17:16:06.514Z,0.90
2023-10-20T17:18:33.487Z,1.10
2023-10-20T17:21:04.901Z,1.20
2023-10-20T17:23:34.722Z,1.20
2023-10-20T17:26:02.624Z,1.60
2023-10-20T17:28:31.758Z,1.60
2023-10-20T17:31:02.067Z,1.40
2023-10-20T17:33:29.655Z,1.60
2023-10-20T17:36:04.589Z,1.10
2023-10-20T17:38:32.567Z,1.10
2023-10-20T17:41:06.978Z,1.00
2023-10-20T17:43:34.563Z,1.27
2023-10-20T17:46:08.627Z,1.20
2023-10-20T17:48:35.649Z,1.37
2023-10-20T17:51:03.696Z,1.20
2023-10-20T17:53:31.543Z,1.07
2023-10-20T17:56:01.696Z,1.37
2023-10-20T17:58:28.537Z,1.37
2023-10-20T18:01:08.598Z,1.10
2023-10-20T18:03:36.962Z,1.20
2023-10-20T18:06:22.375Z,1.47
2023-10-20T18:08:52.253Z,1.23
2023-10-20T18:11:21.275Z,1.20
2023-10-20T18:13:50.147Z,1.70
2023-10-20T18:16:18.863Z,1.53
2023-10-20T18:18:50.587Z,1.53
2023-10-20T18:21:25.382Z,1.80
2023-10-20T18:23:54.223Z,1.83
2023-10-20T18:26:21.382Z,2.00
2023-10-20T18:28:48.758Z,2.07
2023-10-20T18:31:17.423Z,2.20
2023-10-20T18:33:46.719Z,2.43
2023-10-20T18:36:13.894Z,2.20
2023-10-20T18:38:40.882Z,2.30
2023-10-20T18:41:17.924Z,2.07
2023-10-20T18:43:44.960Z,2.00
2023-10-20T18:46:12.359Z,2.70
2023-10-20T18:48:41.729Z,3.53
2023-10-20T18:51:11.507Z,3.07
2023-10-20T18:53:40.351Z,2.43
2023-10-20T18:56:10.363Z,2.30
2023-10-20T18:58:37.877Z,2.83
2023-10-20T19:01:05.039Z,2.20
2023-10-20T19:03:33.251Z,1.90
2023-10-20T19:06:01.387Z,1.70
2023-10-20T19:08:28.424Z,1.53
2023-10-20T19:10:55.300Z,1.63
2023-10-20T19:13:22.244Z,1.80
2023-10-20T19:15:49.111Z,1.80
2023-10-20T19:18:16.036Z,1.83
2023-10-20T19:20:42.878Z,1.60
2023-10-20T19:23:14.999Z,1.40
2023-10-20T19:25:42.611Z,1.23
2023-10-20T19:28:12.662Z,1.70
2023-10-20T19:30:39.559Z,1.30
2023-10-20T19:33:06.361Z,1.20
2023-10-20T19:35:34.358Z,1.10
2023-10-20T19:38:01.291Z,1.40
2023-10-20T19:40:28.119Z,1.30
2023-10-20T19:42:57.113Z,1.00
2023-10-20T19:45:23.917Z,1.00
2023-10-20T19:47:50.880Z,1.00
2023-10-20T19:50:17.766Z,1.17
2023-10-20T19:52:44.499Z,1.10
2023-10-20T19:55:11.304Z,1.10
2023-10-20T19:57:38.096Z,1.20
2023-10-20T20:00:06.611Z,1.80
2023-10-20T20:02:39.900Z,1.67
2023-10-20T20:05:07.140Z,2.10
2023-10-20T20:07:34.087Z,1.87
2023-10-20T20:10:01.004Z,1.70
2023-10-20T20:12:27.780Z,1.40
2023-10-20T20:14:54.644Z,1.00
2023-10-20T20:17:21.561Z,1.00
2023-10-20T20:19:48.375Z,1.50
2023-10-20T20:22:15.166Z,1.37
2023-10-20T20:24:42.363Z,1.43
2023-10-20T20:27:09.851Z,1.80
2023-10-20T20:29:37.250Z,1.80
2023-10-20T20:32:06.609Z,1.70
2023-10-20T20:34:34.359Z,3.13
2023-10-20T20:37:01.452Z,2.00
2023-10-20T20:39:28.849Z,2.57
2023-10-20T20:41:55.752Z,2.43
2023-10-20T20:44:23.045Z,2.60
2023-10-20T20:46:50.047Z,2.43
2023-10-20T20:49:16.848Z,4.00
2023-10-20T20:51:46.846Z,3.60
2023-10-20T20:54:13.787Z,3.17
2023-10-20T20:56:40.654Z,1.57
2023-10-20T20:59:07.558Z,1.37
2023-10-20T21:01:34.381Z,1.40
2023-10-20T21:04:06.501Z,1.27
2023-10-20T21:06:34.764Z,1.10
2023-10-20T21:09:02.026Z,0.97
2023-10-20T21:11:28.997Z,0.90
2023-10-20T21:13:56.140Z,0.90
2023-10-20T21:16:22.992Z,0.70
2023-10-20T21:18:49.823Z,0.90
2023-10-20T21:21:17.179Z,0.87
2023-10-20T21:23:45.106Z,1.00
2023-10-20T21:26:15.437Z,0.70
2023-10-20T21:28:42.242Z,0.77
2023-10-20T21:31:09.125Z,0.80
2023-10-20T21:33:36.041Z,0.97
2023-10-20T21:36:04.252Z,1.10
2023-10-20T21:38:31.208Z,1.03
2023-10-20T21:40:58.765Z,1.03
2023-10-20T21:43:25.588Z,0.70
2023-10-20T21:45:57.117Z,0.80
2023-10-20T21:48:27.968Z,0.70
2023-10-20T21:51:03.229Z,1.00
2023-10-20T21:53:33.272Z,0.67
2023-10-20T21:56:12.706Z,0.80
2023-10-20T21:58:39.947Z,0.80
2023-10-20T22:01:08.405Z,0.70
2023-10-20T22:03:35.666Z,0.60
2023-10-20T22:06:02.800Z,0.60
2023-10-20T22:08:29.661Z,0.60
2023-10-20T22:10:56.561Z,0.60
2023-10-20T22:13:24.050Z,0.70
2023-10-20T22:15:51.050Z,0.60
2023-10-20T22:18:18.062Z,0.70
2023-10-20T22:20:44.952Z,0.50
2023-10-20T22:23:12.409Z,0.57
2023-10-20T22:25:39.853Z,0.70
2023-10-20T22:28:07.164Z,0.80
2023-10-20T22:30:34.701Z,0.70
2023-10-20T22:33:01.855Z,0.70
2023-10-20T22:35:29.002Z,0.70
2023-10-20T22:37:56.039Z,0.70
2023-10-20T22:40:23.100Z,0.70
2023-10-20T22:42:49.922Z,0.70
2023-10-20T22:45:16.848Z,0.50
2023-10-20T22:47:43.781Z,0.70
2023-10-20T22:50:10.993Z,0.70
2023-10-20T22:52:37.787Z,0.50
2023-10-20T22:55:05.096Z,0.50
2023-10-20T22:57:33.045Z,0.30
2023-10-20T23:00:00.433Z,0.60
2023-10-20T23:02:27.697Z,0.40
2023-10-20T23:04:54.674Z,0.33
2023-10-20T23:07:21.442Z,0.40
2023-10-20T23:09:48.195Z,0.50
2023-10-20T23:12:16.821Z,0.40
2023-10-20T23:14:44.036Z,0.30
2023-10-20T23:17:10.937Z,0.37
2023-10-20T23:19:37.824Z,0.20
2023-10-20T23:22:05.557Z,0.30
2023-10-20T23:24:32.404Z,0.30
2023-10-20T23:26:59.518Z,0.30
2023-10-20T23:29:26.424Z,0.30
2023-10-20T23:31:53.413Z,0.40
2023-10-20T23:34:20.165Z,0.30
2023-10-20T23:36:47.066Z,0.20
2023-10-20T23:39:13.904Z,0.20
2023-10-20T23:41:40.774Z,0.37
2023-10-20T23:44:07.546Z,0.13
2023-10-20T23:46:34.389Z,0.10
2023-10-20T23:49:01.307Z,0.20
2023-10-20T23:51:28.117Z,0.20
2023-10-20T23:53:55.036Z,0.20
2023-10-20T23:56:21.850Z,0.17
2023-10-20T23:58:48.744Z,0.20
